createdAt,value
2023-02-20T00:01:39.978Z,5.20
2023-02-20T00:04:07.969Z,5.20
2023-02-20T00:06:36.017Z,5.20
2023-02-20T00:09:04.437Z,5.20
2023-02-20T00:11:32.598Z,5.10
2023-02-20T00:14:00.839Z,5.10
2023-02-20T00:16:29.082Z,5.20
2023-02-20T00:18:58.619Z,5.20
2023-02-20T00:21:26.841Z,5.20
2023-02-20T00:23:55.297Z,5.10
2023-02-20T00:26:23.659Z,5.20
2023-02-20T00:28:51.837Z,5.20
2023-02-20T00:31:20.401Z,5.20
2023-02-20T00:33:48.643Z,5.20
2023-02-20T00:36:19.924Z,5.20
2023-02-20T00:38:48.412Z,5.20
2023-02-20T00:41:17.855Z,5.20
2023-02-20T00:43:45.983Z,5.20
2023-02-20T00:46:15.357Z,5.20
2023-02-20T00:48:43.952Z,5.20
2023-02-20T00:51:12.427Z,5.20
2023-02-20T00:53:41.851Z,5.20
2023-02-20T00:56:10.099Z,5.20
2023-02-20T00:58:38.363Z,5.20
2023-02-20T01:01:07.042Z,5.20
2023-02-20T01:03:35.806Z,5.30
2023-02-20T01:06:04.091Z,5.30
2023-02-20T01:08:32.128Z,5.30
2023-02-20T01:11:01.681Z,5.30
2023-02-20T01:13:30.156Z,5.30
2023-02-20T01:15:58.840Z,5.30
2023-02-20T01:18:27.242Z,5.30
2023-02-20T01:20:55.811Z,5.30
2023-02-20T01:23:24.197Z,5.30
2023-02-20T01:25:52.303Z,5.30
2023-02-20T01:28:21.817Z,5.30
2023-02-20T01:30:49.880Z,5.30
2023-02-20T01:33:18.180Z,5.30
2023-02-20T01:35:46.483Z,5.40
2023-02-20T01:38:14.710Z,5.30
2023-02-20T01:40:48.849Z,5.40
2023-02-20T01:43:17.272Z,5.40
2023-02-20T01:45:47.275Z,5.40
2023-02-20T01:48:22.066Z,5.40
2023-02-20T01:50:53.490Z,5.40
2023-02-20T01:53:24.900Z,5.40
2023-02-20T01:55:55.204Z,5.40
2023-02-20T01:58:28.616Z,5.40
2023-02-20T02:00:59.835Z,5.40
2023-02-20T02:03:31.426Z,5.40
2023-02-20T02:06:01.611Z,5.40
2023-02-20T02:08:31.324Z,5.40
2023-02-20T02:11:03.633Z,5.40
2023-02-20T02:13:32.115Z,5.40
2023-02-20T02:16:12.713Z,5.40
2023-02-20T02:18:49.659Z,5.40
2023-02-20T02:21:51.798Z,5.50
2023-02-20T02:24:57.913Z,5.40
2023-02-20T02:28:15.067Z,5.50
2023-02-20T02:31:13.844Z,5.50
2023-02-20T02:34:30.063Z,5.50
2023-02-20T02:37:11.275Z,5.50
2023-02-20T02:39:47.792Z,5.50
2023-02-20T02:42:22.000Z,5.50
2023-02-20T02:44:57.684Z,5.50
2023-02-20T02:47:36.603Z,5.50
2023-02-20T02:50:15.417Z,5.50
2023-02-20T02:52:56.011Z,5.50
2023-02-20T02:55:30.689Z,5.50
2023-02-20T02:57:58.835Z,5.50
2023-02-20T03:01:00.058Z,5.50
2023-02-20T03:03:37.020Z,5.50
2023-02-20T03:06:10.976Z,5.50
2023-02-20T03:08:43.949Z,5.50
2023-02-20T03:11:16.084Z,5.50
2023-02-20T03:14:04.841Z,5.50
2023-02-20T03:16:41.877Z,5.50
2023-02-20T03:19:13.747Z,5.50
2023-02-20T03:21:44.544Z,5.50
2023-02-20T03:24:15.490Z,5.50
2023-02-20T03:26:45.266Z,5.50
2023-02-20T03:29:18.469Z,5.50
2023-02-20T03:32:05.893Z,5.50
2023-02-20T03:34:51.954Z,5.50
2023-02-20T03:37:40.292Z,5.50
2023-02-20T03:40:30.107Z,5.60
2023-02-20T03:43:19.453Z,5.60
2023-02-20T03:45:49.105Z,5.60
2023-02-20T03:48:22.846Z,5.60
2023-02-20T03:51:08.442Z,5.60
2023-02-20T03:53:36.859Z,5.60
2023-02-20T03:56:10.653Z,5.60
2023-02-20T03:58:43.927Z,5.60
2023-02-20T04:01:15.504Z,5.60
2023-02-20T04:03:45.449Z,5.60
2023-02-20T04:06:14.806Z,5.60
2023-02-20T04:08:48.074Z,5.60
2023-02-20T04:11:22.859Z,5.60
2023-02-20T04:13:54.387Z,5.60
2023-02-20T04:16:23.876Z,5.60
2023-02-20T04:18:52.150Z,5.60
2023-02-20T04:21:30.627Z,5.60
2023-02-20T04:24:05.411Z,5.60
2023-02-20T04:26:35.798Z,5.60
2023-02-20T04:29:04.847Z,5.60
2023-02-20T04:31:33.319Z,5.60
2023-02-20T04:34:01.556Z,5.60
2023-02-20T04:36:29.834Z,5.60
2023-02-20T04:38:58.220Z,5.60
2023-02-20T04:41:26.177Z,5.60
2023-02-20T04:44:16.051Z,5.60
2023-02-20T04:46:44.188Z,5.60
2023-02-20T04:49:12.294Z,5.60
2023-02-20T04:51:40.283Z,5.60
2023-02-20T04:54:08.244Z,5.60
2023-02-20T04:56:36.362Z,5.60
2023-02-20T04:59:06.007Z,5.60
2023-02-20T05:01:34.551Z,5.60
2023-02-20T05:04:02.803Z,5.60
2023-02-20T05:06:30.882Z,5.60
2023-02-20T05:08:59.221Z,5.60
2023-02-20T05:11:27.264Z,5.60
2023-02-20T05:13:55.341Z,5.70
2023-02-20T05:16:25.213Z,5.60
2023-02-20T05:18:55.451Z,5.60
2023-02-20T05:21:45.403Z,5.70
2023-02-20T05:24:24.590Z,5.70
2023-02-20T05:26:59.455Z,5.60
2023-02-20T05:29:54.480Z,5.60
2023-02-20T05:32:25.285Z,5.60
2023-02-20T05:34:53.770Z,5.60
2023-02-20T05:37:23.318Z,5.60
2023-02-20T05:39:51.267Z,5.60
2023-02-20T05:42:19.921Z,5.60
2023-02-20T05:44:49.540Z,5.60
2023-02-20T05:47:17.601Z,5.60
2023-02-20T05:49:48.366Z,5.60
2023-02-20T05:52:18.444Z,5.60
2023-02-20T05:54:48.026Z,5.60
2023-02-20T05:57:17.073Z,5.60
2023-02-20T05:59:45.175Z,5.60
2023-02-20T06:02:13.457Z,5.60
2023-02-20T06:04:41.596Z,5.60
2023-02-20T06:07:10.998Z,5.60
2023-02-20T06:09:42.356Z,5.60
2023-02-20T06:12:10.519Z,5.60
2023-02-20T06:14:38.701Z,5.60
2023-02-20T06:17:09.001Z,5.60
2023-02-20T06:19:37.502Z,5.60
2023-02-20T06:22:05.753Z,5.60
2023-02-20T06:24:35.664Z,5.60
2023-02-20T06:27:04.048Z,5.60
2023-02-20T06:29:32.395Z,5.60
2023-02-20T06:32:01.243Z,5.60
2023-02-20T06:34:33.592Z,5.60
2023-02-20T06:37:03.020Z,5.60
2023-02-20T06:39:32.776Z,5.60
2023-02-20T06:42:02.490Z,5.60
2023-02-20T06:44:31.212Z,5.60
2023-02-20T06:46:59.347Z,5.60
2023-02-20T06:49:27.781Z,5.60
2023-02-20T06:51:56.667Z,5.60
2023-02-20T06:54:25.064Z,5.60
2023-02-20T06:56:53.447Z,5.60
2023-02-20T06:59:23.342Z,5.60
2023-02-20T07:01:51.583Z,5.60
2023-02-20T07:04:22.545Z,5.70
2023-02-20T07:06:51.296Z,5.70
2023-02-20T07:09:21.594Z,5.60
2023-02-20T07:11:50.987Z,5.60
2023-02-20T07:14:19.891Z,5.60
2023-02-20T07:16:49.425Z,5.60
2023-02-20T07:19:18.497Z,5.60
2023-02-20T07:21:48.056Z,5.60
2023-02-20T07:24:16.285Z,5.60
2023-02-20T07:26:44.613Z,5.60
2023-02-20T07:29:14.279Z,5.60
2023-02-20T07:31:42.362Z,5.70
2023-02-20T07:34:12.044Z,5.60
2023-02-20T07:36:40.212Z,5.70
2023-02-20T07:39:08.171Z,5.70
2023-02-20T07:41:36.854Z,5.70
2023-02-20T07:44:05.860Z,5.70
2023-02-20T07:46:34.908Z,5.60
2023-02-20T07:49:04.474Z,5.70
2023-02-20T07:51:34.906Z,5.70
2023-02-20T07:54:03.589Z,5.70
2023-02-20T07:56:32.049Z,5.70
2023-02-20T07:59:01.028Z,5.70
2023-02-20T08:01:29.548Z,5.70
2023-02-20T08:03:57.701Z,5.70
2023-02-20T08:06:25.836Z,5.80
2023-02-20T08:08:55.160Z,5.70
2023-02-20T08:11:24.437Z,5.80
2023-02-20T08:13:55.385Z,5.70
2023-02-20T08:16:23.867Z,5.80
2023-02-20T08:18:51.920Z,5.80
2023-02-20T08:21:20.523Z,5.80
2023-02-20T08:23:48.608Z,5.80
2023-02-20T08:26:18.223Z,5.80
2023-02-20T08:28:47.698Z,5.80
2023-02-20T08:31:30.887Z,5.80
2023-02-20T08:34:00.098Z,5.90
2023-02-20T08:36:28.625Z,5.90
2023-02-20T08:38:57.438Z,5.90
2023-02-20T08:41:27.316Z,5.90
2023-02-20T08:43:55.203Z,5.90
2023-02-20T08:46:23.480Z,5.90
2023-02-20T08:48:51.351Z,5.90
2023-02-20T08:51:21.170Z,6.00
2023-02-20T08:53:49.609Z,5.90
2023-02-20T08:56:20.054Z,5.90
2023-02-20T08:58:49.617Z,5.90
2023-02-20T09:01:17.580Z,6.00
2023-02-20T09:03:45.496Z,6.00
2023-02-20T09:06:14.294Z,6.00
2023-02-20T09:08:42.372Z,6.00
2023-02-20T09:11:11.048Z,6.10
2023-02-20T09:13:43.977Z,6.10
2023-02-20T09:16:14.416Z,6.10
2023-02-20T09:18:42.645Z,6.10
2023-02-20T09:21:11.549Z,6.10
2023-02-20T09:23:40.005Z,6.10
2023-02-20T09:26:08.179Z,6.10
2023-02-20T09:28:36.124Z,6.10
2023-02-20T09:31:04.671Z,6.20
2023-02-20T09:33:34.353Z,6.10
2023-02-20T09:36:02.444Z,6.20
2023-02-20T09:38:30.905Z,6.20
2023-02-20T09:41:01.088Z,6.20
2023-02-20T09:43:43.813Z,6.20
2023-02-20T09:46:16.682Z,6.20
2023-02-20T09:48:56.621Z,6.20
2023-02-20T09:51:27.330Z,6.30
2023-02-20T09:53:59.886Z,6.30
2023-02-20T09:56:31.278Z,6.30
2023-02-20T09:59:05.190Z,6.30
2023-02-20T10:01:35.674Z,6.40
2023-02-20T10:04:09.013Z,6.40
2023-02-20T10:06:37.723Z,6.40
2023-02-20T10:09:07.761Z,6.40
2023-02-20T10:11:47.586Z,6.40
2023-02-20T10:14:44.195Z,6.40
2023-02-20T10:17:26.657Z,6.40
2023-02-20T10:20:05.020Z,6.50
2023-02-20T10:22:35.593Z,6.50
2023-02-20T10:25:24.496Z,6.50
2023-02-20T10:28:03.784Z,6.60
2023-02-20T10:30:36.577Z,6.50
2023-02-20T10:33:17.545Z,6.60
2023-02-20T10:35:56.776Z,6.60
2023-02-20T10:38:28.863Z,6.70
2023-02-20T10:41:05.227Z,6.70
2023-02-20T10:43:39.112Z,6.70
2023-02-20T10:46:15.877Z,6.70
2023-02-20T10:48:45.474Z,6.70
2023-02-20T10:51:19.912Z,6.70
2023-02-20T10:53:56.106Z,6.80
2023-02-20T10:56:32.826Z,6.80
2023-02-20T10:59:09.072Z,6.80
2023-02-20T11:01:38.732Z,6.80
2023-02-20T11:04:13.126Z,6.80
2023-02-20T11:06:47.121Z,6.80
2023-02-20T11:09:15.641Z,6.90
2023-02-20T11:11:45.228Z,6.90
2023-02-20T11:14:16.413Z,6.90
2023-02-20T11:16:49.635Z,6.90
2023-02-20T11:19:23.045Z,6.90
2023-02-20T11:21:53.237Z,6.90
2023-02-20T11:24:33.361Z,6.90
2023-02-20T11:27:06.674Z,7.00
2023-02-20T11:29:39.067Z,7.00
2023-02-20T11:32:29.327Z,7.00
2023-02-20T11:35:21.816Z,7.00
2023-02-20T11:37:55.879Z,7.00
2023-02-20T11:40:29.470Z,7.00
2023-02-20T11:42:57.530Z,7.10
2023-02-20T11:45:30.769Z,7.10
2023-02-20T11:48:10.929Z,7.10
2023-02-20T11:50:44.164Z,7.10
2023-02-20T11:53:22.570Z,7.10
2023-02-20T11:56:00.013Z,7.10
2023-02-20T11:58:29.606Z,7.20
2023-02-20T12:00:58.002Z,7.10
2023-02-20T12:03:28.437Z,7.20
2023-02-20T12:05:57.903Z,7.20
2023-02-20T12:08:50.297Z,7.30
2023-02-20T12:11:20.643Z,7.30
2023-02-20T12:13:51.245Z,7.30
2023-02-20T12:16:46.756Z,7.30
2023-02-20T12:19:20.107Z,7.30
2023-02-20T12:22:02.141Z,7.30
2023-02-20T12:24:50.526Z,7.30
2023-02-20T12:27:47.221Z,7.30
2023-02-20T12:30:27.499Z,7.30
2023-02-20T12:33:10.585Z,7.30
2023-02-20T12:35:47.142Z,7.40
2023-02-20T12:38:32.777Z,7.40
2023-02-20T12:41:26.997Z,7.40
2023-02-20T12:44:13.762Z,7.40
2023-02-20T12:46:51.904Z,7.40
2023-02-20T12:49:41.681Z,7.40
2023-02-20T12:52:27.998Z,7.40
2023-02-20T12:55:04.172Z,7.40
2023-02-20T12:57:45.326Z,7.40
2023-02-20T13:00:23.471Z,7.40
2023-02-20T13:02:55.804Z,7.40
2023-02-20T13:05:28.252Z,7.40
2023-02-20T13:07:57.946Z,7.40
2023-02-20T13:10:31.479Z,7.40
2023-02-20T13:13:01.940Z,7.50
2023-02-20T13:15:37.232Z,7.50
2023-02-20T13:18:11.182Z,7.50
2023-02-20T13:20:45.362Z,7.50
2023-02-20T13:23:36.863Z,7.50
2023-02-20T13:26:25.740Z,7.50
2023-02-20T13:28:55.531Z,7.50
2023-02-20T13:31:25.040Z,7.50
2023-02-20T13:34:14.286Z,7.50
2023-02-20T13:36:45.032Z,7.50
2023-02-20T13:39:38.698Z,7.50
2023-02-20T13:42:21.979Z,7.50
2023-02-20T13:44:52.800Z,7.50
2023-02-20T13:47:40.815Z,7.60
2023-02-20T13:50:35.681Z,7.50
2023-02-20T13:53:06.112Z,7.50
2023-02-20T13:55:34.670Z,7.50
2023-02-20T13:58:11.321Z,7.60
2023-02-20T14:00:52.329Z,7.50
2023-02-20T14:03:23.907Z,7.60
2023-02-20T14:06:08.372Z,7.60
2023-02-20T14:08:40.527Z,7.60
2023-02-20T14:11:11.268Z,7.60
2023-02-20T14:13:41.399Z,7.60
2023-02-20T14:16:28.799Z,7.60
2023-02-20T14:18:59.625Z,7.60
2023-02-20T14:21:29.753Z,7.60
2023-02-20T14:24:17.536Z,7.60
2023-02-20T14:26:45.621Z,7.60
2023-02-20T14:29:23.430Z,7.60
2023-02-20T14:31:52.905Z,7.60
2023-02-20T14:34:28.634Z,7.60
2023-02-20T14:37:10.388Z,7.60
2023-02-20T14:39:49.003Z,7.60
2023-02-20T14:42:22.565Z,7.60
2023-02-20T14:44:56.768Z,7.60
2023-02-20T14:47:24.919Z,7.60
2023-02-20T14:49:52.757Z,7.60
2023-02-20T14:52:23.804Z,7.60
2023-02-20T14:55:01.391Z,7.70
2023-02-20T14:57:29.391Z,7.70
2023-02-20T15:00:11.982Z,7.60
2023-02-20T15:02:43.688Z,7.70
2023-02-20T15:05:18.076Z,7.60
2023-02-20T15:07:47.314Z,7.70
2023-02-20T15:10:39.703Z,7.60
2023-02-20T15:13:10.155Z,7.70
2023-02-20T15:15:40.390Z,7.70
2023-02-20T15:18:12.041Z,7.70
2023-02-20T15:20:43.490Z,7.70
2023-02-20T15:23:20.676Z,7.70
2023-02-20T15:25:50.191Z,7.70
2023-02-20T15:28:28.997Z,7.70
2023-02-20T15:31:06.534Z,7.70
2023-02-20T15:33:37.099Z,7.70
2023-02-20T15:36:06.345Z,7.70
2023-02-20T15:38:37.221Z,7.70
2023-02-20T15:41:07.639Z,7.70
2023-02-20T15:43:46.627Z,7.70
2023-02-20T15:46:16.742Z,7.70
2023-02-20T15:48:44.939Z,7.70
2023-02-20T15:51:15.649Z,7.70
2023-02-20T15:53:45.790Z,7.70
2023-02-20T15:56:16.559Z,7.70
2023-02-20T15:58:45.143Z,7.70
2023-02-20T16:01:13.845Z,7.70
2023-02-20T16:03:51.672Z,7.70
2023-02-20T16:06:21.364Z,7.70
2023-02-20T16:08:50.732Z,7.70
2023-02-20T16:11:21.760Z,7.70
2023-02-20T16:13:54.480Z,7.70
2023-02-20T16:16:26.523Z,7.70
2023-02-20T16:18:55.790Z,7.70
2023-02-20T16:21:25.315Z,7.70
2023-02-20T16:23:57.336Z,7.70
2023-02-20T16:26:34.463Z,7.70
2023-02-20T16:29:04.517Z,7.70
2023-02-20T16:32:09.889Z,7.70
2023-02-20T16:34:38.967Z,7.70
2023-02-20T16:37:10.596Z,7.70
2023-02-20T16:39:39.770Z,7.70
2023-02-20T16:42:24.634Z,7.70
2023-02-20T16:44:55.453Z,7.70
2023-02-20T16:47:34.311Z,7.70
2023-02-20T16:50:09.469Z,7.70
2023-02-20T16:52:40.667Z,7.70
2023-02-20T16:55:17.550Z,7.70
2023-02-20T16:57:46.945Z,7.70
2023-02-20T17:00:16.297Z,7.70
2023-02-20T17:02:44.441Z,7.70
2023-02-20T17:05:13.534Z,7.70
2023-02-20T17:07:41.539Z,7.70
2023-02-20T17:10:09.946Z,7.70
2023-02-20T17:12:37.854Z,7.70
2023-02-20T17:15:08.829Z,7.70
2023-02-20T17:17:36.899Z,7.70
2023-02-20T17:20:05.436Z,7.70
2023-02-20T17:22:34.288Z,7.70
2023-02-20T17:25:02.499Z,7.70
2023-02-20T17:27:30.711Z,7.70
2023-02-20T17:29:58.905Z,7.70
2023-02-20T17:32:28.639Z,7.70
2023-02-20T17:34:56.742Z,7.70
2023-02-20T17:37:26.385Z,7.70
2023-02-20T17:39:54.852Z,7.70
2023-02-20T17:42:22.884Z,7.70
2023-02-20T17:44:51.201Z,7.70
2023-02-20T17:47:19.636Z,7.70
2023-02-20T17:49:51.729Z,7.70
2023-02-20T17:52:20.944Z,7.70
2023-02-20T17:54:50.905Z,7.70
2023-02-20T17:57:20.775Z,7.70
2023-02-20T17:59:50.405Z,7.70
2023-02-20T18:02:19.392Z,7.70
2023-02-20T18:04:47.621Z,7.70
2023-02-20T18:07:17.684Z,7.70
2023-02-20T18:09:46.068Z,7.70
2023-02-20T18:12:14.196Z,7.70
2023-02-20T18:14:42.184Z,7.70
2023-02-20T18:17:10.382Z,7.70
2023-02-20T18:19:38.402Z,7.70
2023-02-20T18:22:06.503Z,7.70
2023-02-20T18:24:36.292Z,7.70
2023-02-20T18:27:12.403Z,7.70
2023-02-20T18:29:42.979Z,7.70
2023-02-20T18:32:13.038Z,7.70
2023-02-20T18:34:41.359Z,7.70
2023-02-20T18:37:18.308Z,7.70
2023-02-20T18:39:49.915Z,7.70
2023-02-20T18:42:19.522Z,7.70
2023-02-20T18:44:49.587Z,7.70
2023-02-20T18:47:18.208Z,7.70
2023-02-20T18:49:49.473Z,7.70
2023-02-20T18:52:19.804Z,7.70
2023-02-20T18:55:05.351Z,7.70
2023-02-20T18:57:38.215Z,7.70
2023-02-20T19:00:06.881Z,7.70
2023-02-20T19:02:34.810Z,7.70
2023-02-20T19:05:03.062Z,7.70
2023-02-20T19:07:30.991Z,7.70
2023-02-20T19:10:02.383Z,7.70
2023-02-20T19:12:30.219Z,7.70
2023-02-20T19:14:58.263Z,7.70
2023-02-20T19:17:26.114Z,7.70
2023-02-20T19:19:55.435Z,7.70
2023-02-20T19:22:23.837Z,7.70
2023-02-20T19:24:51.802Z,7.70
2023-02-20T19:27:21.651Z,7.70
2023-02-20T19:29:49.777Z,7.70
2023-02-20T19:32:17.983Z,7.70
2023-02-20T19:34:46.097Z,7.70
2023-02-20T19:37:15.484Z,7.80
2023-02-20T19:39:46.093Z,7.80
2023-02-20T19:42:20.037Z,7.70
2023-02-20T19:44:57.215Z,7.80
2023-02-20T19:47:30.842Z,7.80
2023-02-20T19:50:04.724Z,7.70
2023-02-20T19:52:36.068Z,7.70
2023-02-20T19:55:10.338Z,7.70
2023-02-20T19:57:40.199Z,7.80
2023-02-20T20:00:18.153Z,7.80
2023-02-20T20:02:52.500Z,7.70
2023-02-20T20:05:21.326Z,7.80
2023-02-20T20:07:56.488Z,7.80
2023-02-20T20:10:41.902Z,7.70
2023-02-20T20:13:11.874Z,7.70
2023-02-20T20:15:57.821Z,7.80
2023-02-20T20:18:28.095Z,7.80
2023-02-20T20:20:58.992Z,7.80
2023-02-20T20:23:28.321Z,7.80
2023-02-20T20:25:56.559Z,7.80
2023-02-20T20:28:24.606Z,7.80
2023-02-20T20:30:56.437Z,7.80
2023-02-20T20:33:24.905Z,7.80
2023-02-20T20:35:54.946Z,7.80
2023-02-20T20:38:23.242Z,7.80
2023-02-20T20:40:51.443Z,7.80
2023-02-20T20:43:19.372Z,7.80
2023-02-20T20:45:49.294Z,7.80
2023-02-20T20:48:20.273Z,7.80
2023-02-20T20:50:51.518Z,7.80
2023-02-20T20:53:31.367Z,7.80
2023-02-20T20:56:17.065Z,7.80
2023-02-20T20:59:22.580Z,7.80
2023-02-20T21:02:07.641Z,7.80
2023-02-20T21:04:43.558Z,7.80
2023-02-20T21:07:11.880Z,7.80
2023-02-20T21:09:39.904Z,7.80
2023-02-20T21:12:11.888Z,7.80
2023-02-20T21:15:00.951Z,7.80
2023-02-20T21:17:43.227Z,7.80
2023-02-20T21:20:38.670Z,7.80
2023-02-20T21:23:10.979Z,7.80
2023-02-20T21:25:47.116Z,7.80
2023-02-20T21:28:17.975Z,7.80
2023-02-20T21:30:50.302Z,7.80
2023-02-20T21:33:21.358Z,7.80
2023-02-20T21:35:52.692Z,7.80
2023-02-20T21:38:41.865Z,7.80
2023-02-20T21:41:09.816Z,7.80
2023-02-20T21:43:55.878Z,7.80
2023-02-20T21:46:24.405Z,7.80
2023-02-20T21:48:58.763Z,7.80
2023-02-20T21:51:31.039Z,7.80
2023-02-20T22:06:17.426Z,7.80
2023-02-20T22:09:52.951Z,7.80
2023-02-20T22:22:54.657Z,7.80
2023-02-20T22:25:42.000Z,7.90
2023-02-20T22:28:34.300Z,7.90
2023-02-20T22:31:21.150Z,7.90
2023-02-20T22:34:09.396Z,7.80
2023-02-20T22:36:55.083Z,7.80
2023-02-20T22:39:40.630Z,7.80
2023-02-20T22:42:34.390Z,7.90
2023-02-20T22:45:24.975Z,7.80
2023-02-20T22:48:10.490Z,7.80
2023-02-20T22:50:56.007Z,7.90
2023-02-20T22:53:41.696Z,7.80
2023-02-20T22:56:35.822Z,7.90
2023-02-20T22:59:21.096Z,7.90
2023-02-20T23:02:08.381Z,7.90
2023-02-20T23:04:54.435Z,7.90
2023-02-20T23:07:39.839Z,7.90
2023-02-20T23:10:26.090Z,7.90
2023-02-20T23:13:11.486Z,7.90
2023-02-20T23:16:02.031Z,7.90
2023-02-20T23:18:49.097Z,7.90
2023-02-20T23:21:37.572Z,7.90
2023-02-20T23:24:25.270Z,7.90
2023-02-20T23:27:11.465Z,7.90
2023-02-20T23:29:57.424Z,7.90
2023-02-20T23:32:43.282Z,7.90
2023-02-20T23:35:30.608Z,7.90
2023-02-20T23:38:16.562Z,7.90
2023-02-20T23:41:01.709Z,7.90
2023-02-20T23:43:47.779Z,7.90
2023-02-20T23:46:33.699Z,7.90
2023-02-20T23:49:19.500Z,7.90
2023-02-20T23:52:16.041Z,7.90
2023-02-20T23:55:02.017Z,7.90
2023-02-20T23:57:47.580Z,7.90
